Time;durP1;ratioP1;P1;durP2;ratioP2;P2;SDS_P1;SDS_P2;PMS_P1;PMS_P2;Temp;Humidity;BMP_temperature;BMP_pressure;BME280_temperature;BME280_humidity;BME280_pressure;Samples;Min_cycle;Max_cycle;Signal;HPM_P1;HPM_P2
2023/01/09 00:02:16;;;;;;;37.25;27.00;;;23.70;73.00;;;;;;1881358;76;21125;-90
2023/01/09 00:04:47;;;;;;;36.63;25.72;;;23.80;73.20;;;;;;1854985;77;21125;-91
2023/01/09 00:07:18;;;;;;;40.45;27.22;;;23.80;73.30;;;;;;1879741;76;21551;-87
2023/01/09 00:09:49;;;;;;;33.73;25.75;;;23.80;73.30;;;;;;1873457;76;21196;-87
2023/01/09 00:12:19;;;;;;;34.18;26.57;;;23.80;73.60;;;;;;1840818;76;21088;-89
2023/01/09 00:14:50;;;;;;;35.68;25.80;;;23.80;73.20;;;;;;1872066;76;21131;-89
2023/01/09 00:17:21;;;;;;;38.67;25.97;;;23.80;73.40;;;;;;1845902;77;21076;-86
2023/01/09 00:19:52;;;;;;;41.15;27.27;;;23.70;73.20;;;;;;1860693;75;21604;-86
2023/01/09 00:22:26;;;;;;;41.40;25.30;;;23.70;73.40;;;;;;1837970;76;21192;-72
2023/01/09 00:24:57;;;;;;;36.42;27.15;;;23.70;73.20;;;;;;1871292;75;21582;-72
2023/01/09 00:27:33;;;;;;;42.35;29.65;;;23.70;73.00;;;;;;1851317;77;21579;-71
2023/01/09 00:30:04;;;;;;;38.87;27.00;;;23.70;72.90;;;;;;1873639;76;21111;-71
2023/01/09 00:32:35;;;;;;;40.38;26.17;;;23.70;72.50;;;;;;1839752;77;21240;-72
2023/01/09 00:35:07;;;;;;;35.58;26.00;;;23.80;73.10;;;;;;1871321;75;21173;-72
2023/01/09 00:37:38;;;;;;;39.63;27.35;;;23.80;73.10;;;;;;1871612;75;21200;-70
2023/01/09 00:40:10;;;;;;;35.20;24.80;;;23.80;72.90;;;;;;1880441;76;21123;-70
2023/01/09 00:42:41;;;;;;;33.98;24.70;;;23.80;72.80;;;;;;1866032;76;21167;-71
2023/01/09 00:45:15;;;;;;;38.78;27.27;;;23.80;73.40;;;;;;1843546;77;21127;-69
2023/01/09 00:47:48;;;;;;;35.48;24.98;;;23.90;73.10;;;;;;1838866;77;21729;-70
2023/01/09 00:50:26;;;;;;;35.90;24.45;;;23.80;72.80;;;;;;1844617;76;21159;-70
2023/01/09 00:53:00;;;;;;;41.42;25.30;;;23.80;72.80;;;;;;1842659;76;21237;-71
2023/01/09 00:55:32;;;;;;;34.73;24.57;;;23.90;73.00;;;;;;1848313;76;21758;-71
2023/01/09 00:58:03;;;;;;;30.43;23.85;;;23.90;72.70;;;;;;1847293;76;21103;-71
2023/01/09 01:00:35;;;;;;;32.55;24.63;;;24.00;72.70;;;;;;1845992;76;21179;-69
2023/01/09 01:03:06;;;;;;;31.77;22.80;;;23.90;72.60;;;;;;1844173;76;21247;-70
2023/01/09 01:08:25;;;;;;;35.73;23.60;;;24.00;72.90;;;;;;1846264;76;21223;-71
2023/01/09 01:10:57;;;;;;;32.67;22.60;;;24.10;72.70;;;;;;1845790;76;21887;-72
2023/01/09 01:13:27;;;;;;;34.23;23.80;;;24.20;72.80;;;;;;1846671;76;21194;-71
2023/01/09 01:15:58;;;;;;;30.00;22.50;;;24.20;72.50;;;;;;1845258;76;21233;-72
2023/01/09 01:18:29;;;;;;;32.35;21.37;;;24.30;72.30;;;;;;1843930;76;21236;-72
2023/01/09 01:21:00;;;;;;;34.78;21.33;;;24.30;72.20;;;;;;1850440;76;21135;-71
2023/01/09 01:23:37;;;;;;;29.52;22.52;;;24.30;72.30;;;;;;1846131;76;21267;-70
2023/01/09 01:26:18;;;;;;;39.10;24.00;;;24.30;72.00;;;;;;1849190;76;21074;-71
2023/01/09 01:28:45;;;;;;;30.62;22.02;;;24.40;71.80;;;;;;1847604;76;21284;-71
2023/01/09 01:31:20;;;;;;;31.42;22.42;;;24.40;72.20;;;;;;1849944;76;21190;-71
2023/01/09 01:33:51;;;;;;;29.23;22.35;;;24.40;72.40;;;;;;1851463;76;21119;-70
2023/01/09 01:36:23;;;;;;;28.92;21.80;;;24.40;72.40;;;;;;1821365;77;21155;-71
2023/01/09 01:38:58;;;;;;;30.15;21.45;;;24.40;72.40;;;;;;1860914;75;21150;-70
2023/01/09 01:41:29;;;;;;;30.55;22.07;;;24.50;72.10;;;;;;1884964;74;21183;-70
2023/01/09 01:44:03;;;;;;;30.48;21.70;;;24.50;72.20;;;;;;1851580;75;21183;-70
2023/01/09 01:46:34;;;;;;;26.80;20.35;;;24.60;72.20;;;;;;1863312;75;21782;-70
2023/01/09 01:49:10;;;;;;;27.95;21.15;;;24.60;71.80;;;;;;1860540;75;21088;-69
2023/01/09 01:51:43;;;;;;;32.10;22.30;;;24.60;72.00;;;;;;1864800;76;21760;-70
2023/01/09 01:54:17;;;;;;;32.65;22.75;;;24.60;72.10;;;;;;1859990;75;21139;-69
2023/01/09 01:56:50;;;;;;;31.90;22.77;;;24.70;72.10;;;;;;1833524;76;21226;-69
2023/01/09 01:59:23;;;;;;;28.20;22.50;;;24.70;71.60;;;;;;1835375;77;21159;-70
2023/01/09 02:01:57;;;;;;;27.95;21.23;;;24.80;71.70;;;;;;1838770;76;21171;-70
2023/01/09 02:04:30;;;;;;;28.50;21.17;;;24.80;71.30;;;;;;1801804;78;21241;-70
2023/01/09 02:07:03;;;;;;;35.13;22.52;;;24.80;71.20;;;;;;1860356;74;21619;-70
2023/01/09 02:09:35;;;;;;;29.30;22.90;;;24.80;70.70;;;;;;1848984;76;21221;-71
2023/01/09 02:12:23;;;;;;;28.85;21.50;;;24.80;71.30;;;;;;1865835;75;21151;-70
2023/01/09 02:14:59;;;;;;;35.03;22.65;;;24.90;71.10;;;;;;1855513;75;21755;-70
2023/01/09 02:17:38;;;;;;;29.55;21.35;;;24.90;71.10;;;;;;1850068;76;21177;-69
2023/01/09 02:20:25;;;;;;;29.00;21.52;;;24.90;70.90;;;;;;1866078;75;21232;-70
2023/01/09 02:23:17;;;;;;;26.70;20.35;;;25.00;71.00;;;;;;1850269;75;21167;-70
2023/01/09 02:26:09;;;;;;;28.25;21.93;;;25.00;70.60;;;;;;1868636;75;21119;-72
2023/01/09 02:28:54;;;;;;;32.23;22.15;;;25.10;70.50;;;;;;1845762;75;21223;-70
2023/01/09 02:31:34;;;;;;;31.25;20.97;;;25.10;70.60;;;;;;1863713;75;21231;-70
2023/01/09 02:34:09;;;;;;;28.62;21.95;;;25.20;70.00;;;;;;1855218;75;21120;-71
2023/01/09 02:37:00;;;;;;;32.48;22.98;;;25.20;70.10;;;;;;1860966;75;21141;-71
2023/01/09 02:39:42;;;;;;;36.00;22.70;;;25.20;70.10;;;;;;1853629;75;21082;-70
2023/01/09 02:42:22;;;;;;;34.08;22.10;;;25.30;70.00;;;;;;1854091;77;21159;-69
2023/01/09 02:44:53;;;;;;;29.50;21.07;;;25.30;70.00;;;;;;1864364;75;21566;-71
2023/01/09 02:47:28;;;;;;;29.15;20.80;;;25.30;70.00;;;;;;1864679;75;21636;-70
2023/01/09 02:50:01;;;;;;;25.92;19.12;;;25.30;70.10;;;;;;1855767;75;21164;-71
2023/01/09 02:53:07;;;;;;;25.97;20.75;;;25.30;69.80;;;;;;1869122;75;21181;-71
2023/01/09 02:55:57;;;;;;;24.70;19.65;;;25.40;69.60;;;;;;1848801;75;21839;-70
2023/01/09 02:58:46;;;;;;;31.60;20.27;;;25.50;69.30;;;;;;1853714;75;21220;-71
2023/01/09 03:01:36;;;;;;;28.62;19.85;;;25.60;69.30;;;;;;1866685;75;21621;-71
2023/01/09 03:04:11;;;;;;;25.45;18.80;;;25.60;69.50;;;;;;1863041;75;21195;-70
2023/01/09 03:06:45;;;;;;;21.95;17.75;;;25.60;69.40;;;;;;1865570;75;21639;-71
2023/01/09 03:09:19;;;;;;;26.20;18.65;;;25.70;69.40;;;;;;1867432;75;21663;-70
2023/01/09 03:11:55;;;;;;;24.00;18.00;;;25.80;69.20;;;;;;1829255;77;21115;-70
2023/01/09 03:14:28;;;;;;;26.07;18.43;;;25.90;69.20;;;;;;1865133;75;21147;-69
2023/01/09 03:17:01;;;;;;;24.27;18.52;;;26.00;69.30;;;;;;1838400;76;21091;-69
2023/01/09 03:19:35;;;;;;;26.02;18.67;;;26.00;69.10;;;;;;1853736;76;21698;-69
2023/01/09 03:22:08;;;;;;;27.42;19.73;;;26.10;68.60;;;;;;1868414;75;21159;-70
2023/01/09 03:24:39;;;;;;;27.40;21.02;;;26.10;68.30;;;;;;1852395;77;21154;-70
2023/01/09 03:27:10;;;;;;;23.32;18.57;;;26.10;68.30;;;;;;1866532;75;21171;-71
2023/01/09 03:29:41;;;;;;;24.77;18.57;;;26.10;68.30;;;;;;1849814;75;21241;-71
2023/01/09 03:32:14;;;;;;;25.82;19.73;;;26.20;68.40;;;;;;1856500;76;21175;-71
2023/01/09 03:34:46;;;;;;;28.27;20.25;;;26.10;68.50;;;;;;1851054;75;21213;-70
2023/01/09 03:37:18;;;;;;;25.55;19.67;;;26.20;68.40;;;;;;1860955;75;21630;-70
2023/01/09 03:39:49;;;;;;;26.05;19.85;;;26.20;68.30;;;;;;1864545;75;21627;-70
2023/01/09 03:42:20;;;;;;;26.10;18.65;;;26.30;68.40;;;;;;1851623;75;22269;-71
2023/01/09 03:44:51;;;;;;;31.93;21.07;;;26.30;68.50;;;;;;1856329;75;21159;-73
2023/01/09 03:47:22;;;;;;;29.27;20.48;;;26.30;68.50;;;;;;1846697;75;21155;-71
2023/01/09 03:49:54;;;;;;;25.08;19.95;;;26.40;68.70;;;;;;1868855;75;21734;-71
2023/01/09 03:52:26;;;;;;;28.27;20.68;;;26.40;69.00;;;;;;1858478;75;21088;-72
2023/01/09 03:54:56;;;;;;;25.65;18.92;;;26.40;69.00;;;;;;1835566;76;21108;-71
2023/01/09 03:57:28;;;;;;;27.10;19.67;;;26.40;69.00;;;;;;1836044;76;21955;-70
2023/01/09 03:59:58;;;;;;;29.02;20.65;;;26.50;69.00;;;;;;1837569;76;21166;-70
2023/01/09 04:02:29;;;;;;;27.00;18.25;;;26.40;68.90;;;;;;1836341;76;21148;-73
2023/01/09 04:05:00;;;;;;;25.88;18.62;;;26.40;68.80;;;;;;1838116;76;21210;-71
2023/01/09 04:07:31;;;;;;;24.43;19.57;;;26.50;69.40;;;;;;1812092;77;21203;-72
2023/01/09 04:10:02;;;;;;;26.70;19.50;;;26.50;69.40;;;;;;1834944;76;21171;-71
2023/01/09 04:12:33;;;;;;;25.70;18.90;;;26.50;69.20;;;;;;1807188;77;22022;-71
2023/01/09 04:15:08;;;;;;;24.30;17.25;;;26.60;69.50;;;;;;1846582;76;21609;-72
2023/01/09 04:17:43;;;;;;;27.73;17.50;;;26.60;69.30;;;;;;1867523;75;21158;-71
2023/01/09 04:20:17;;;;;;;22.05;17.02;;;26.70;69.30;;;;;;1850624;77;21084;-70
2023/01/09 04:22:54;;;;;;;19.92;16.23;;;26.70;69.20;;;;;;1856277;77;21268;-70
2023/01/09 04:25:30;;;;;;;20.37;15.72;;;26.80;69.30;;;;;;1833608;76;21637;-71
2023/01/09 04:28:03;;;;;;;22.27;15.58;;;26.90;69.30;;;;;;1865595;76;21099;-71
2023/01/09 04:30:34;;;;;;;23.87;16.23;;;27.00;69.20;;;;;;1867105;75;21270;-72
2023/01/09 04:33:05;;;;;;;26.93;15.63;;;27.00;69.00;;;;;;1847385;77;21172;-70
2023/01/09 04:35:35;;;;;;;21.35;13.32;;;27.10;69.10;;;;;;1865465;75;21135;-71
2023/01/09 04:38:06;;;;;;;18.80;13.85;;;27.30;69.10;;;;;;1839457;76;21667;-71
2023/01/09 04:40:37;;;;;;;19.77;13.30;;;27.40;68.50;;;;;;1856397;76;21616;-71
2023/01/09 04:43:08;;;;;;;18.10;12.37;;;27.50;68.30;;;;;;1862216;75;21110;-71
2023/01/09 04:45:39;;;;;;;14.13;11.55;;;27.60;68.20;;;;;;1871618;74;21644;-71
2023/01/09 04:48:12;;;;;;;16.95;12.80;;;27.70;68.10;;;;;;1860592;75;21142;-71
2023/01/09 04:50:45;;;;;;;17.48;13.20;;;27.80;67.90;;;;;;1879466;74;21153;-71
2023/01/09 04:53:16;;;;;;;16.27;12.90;;;27.90;67.70;;;;;;1886175;74;21147;-71
2023/01/09 04:55:47;;;;;;;15.30;9.68;;;28.00;66.40;;;;;;1879792;74;21166;-71
2023/01/09 04:58:17;;;;;;;14.85;10.13;;;28.10;66.30;;;;;;1865950;75;21179;-70
2023/01/09 05:00:51;;;;;;;12.25;9.95;;;28.20;66.70;;;;;;1875774;74;21186;-72
2023/01/09 05:03:22;;;;;;;14.10;9.23;;;28.30;66.30;;;;;;1883162;74;21068;-72
2023/01/09 05:05:53;;;;;;;14.45;9.65;;;28.40;66.20;;;;;;1843682;76;21840;-71
2023/01/09 05:08:24;;;;;;;11.40;8.10;;;28.60;69.70;;;;;;1877704;75;21147;-72
2023/01/09 05:10:55;;;;;;;11.40;7.50;;;28.60;66.00;;;;;;1816797;77;21536;-73
2023/01/09 05:13:26;;;;;;;9.65;7.53;;;28.60;65.80;;;;;;1886176;74;21745;-71
2023/01/09 05:15:57;;;;;;;11.57;7.40;;;28.70;65.80;;;;;;1850985;75;21114;-71
2023/01/09 05:18:28;;;;;;;10.58;7.75;;;28.70;65.80;;;;;;1877514;74;22051;-71
2023/01/09 05:20:59;;;;;;;11.80;8.35;;;28.80;65.50;;;;;;1882020;74;21616;-70
2023/01/09 05:23:30;;;;;;;10.75;7.72;;;28.60;68.20;;;;;;1884794;74;21648;-72
2023/01/09 05:26:03;;;;;;;12.03;7.67;;;28.90;73.30;;;;;;1848899;76;21119;-71
2023/01/09 05:28:34;;;;;;;8.73;6.33;;;28.90;76.20;;;;;;1844241;76;21277;-72
2023/01/09 05:31:05;;;;;;;9.00;6.90;;;29.10;79.60;;;;;;1889383;74;21240;-71
2023/01/09 05:33:36;;;;;;;9.83;7.03;;;29.20;67.60;;;;;;1884881;74;21130;-71
2023/01/09 05:36:08;;;;;;;13.72;7.83;;;28.90;64.60;;;;;;1879884;74;21189;-71
2023/01/09 05:38:39;;;;;;;8.53;7.03;;;29.20;64.50;;;;;;1890039;74;21551;-70
2023/01/09 05:41:12;;;;;;;10.85;7.42;;;29.20;64.50;;;;;;1882933;74;21244;-72
2023/01/09 05:43:42;;;;;;;8.80;6.85;;;29.20;64.10;;;;;;1863912;75;21235;-72
2023/01/09 05:46:14;;;;;;;8.45;6.97;;;29.30;64.40;;;;;;1874549;74;21191;-73
2023/01/09 05:48:45;;;;;;;10.88;7.78;;;29.30;64.90;;;;;;1869486;74;21088;-72
2023/01/09 05:51:16;;;;;;;9.18;7.22;;;29.40;63.80;;;;;;1866040;75;21080;-72
2023/01/09 05:53:46;;;;;;;10.43;7.92;;;29.50;63.50;;;;;;1869910;75;21510;-73
2023/01/09 05:56:17;;;;;;;10.15;7.37;;;29.50;63.30;;;;;;1863363;75;21147;-73
2023/01/09 05:58:48;;;;;;;10.38;7.97;;;29.60;63.40;;;;;;1851683;75;21216;-72
2023/01/09 06:01:22;;;;;;;10.48;8.30;;;29.60;63.40;;;;;;1862953;75;21614;-72
2023/01/09 06:03:53;;;;;;;14.93;7.90;;;29.60;63.20;;;;;;1864931;75;21165;-71
2023/01/09 06:06:27;;;;;;;10.53;7.10;;;29.70;62.90;;;;;;1863272;75;21155;-72
2023/01/09 06:09:02;;;;;;;10.60;7.37;;;29.70;62.80;;;;;;1849700;75;21189;-72
2023/01/09 06:11:37;;;;;;;11.00;6.97;;;29.80;62.70;;;;;;1862522;76;21127;-71
2023/01/09 06:14:08;;;;;;;8.60;6.80;;;29.80;62.70;;;;;;1863178;75;21716;-70
2023/01/09 06:16:40;;;;;;;15.20;7.72;;;29.80;62.60;;;;;;1847203;77;21195;-71
2023/01/09 06:19:10;;;;;;;10.23;6.83;;;29.70;62.70;;;;;;1869021;75;21797;-72
2023/01/09 06:21:41;;;;;;;8.60;6.60;;;29.80;62.30;;;;;;1851738;75;21163;-72
2023/01/09 06:24:12;;;;;;;8.35;6.53;;;29.80;62.50;;;;;;1865539;75;21185;-75
2023/01/09 06:26:44;;;;;;;8.33;6.05;;;29.90;62.90;;;;;;1863954;75;21232;-72
2023/01/09 06:29:15;;;;;;;8.45;6.15;;;29.90;62.70;;;;;;1863989;75;21213;-71
2023/01/09 06:31:46;;;;;;;7.70;6.05;;;29.90;61.90;;;;;;1868937;75;21719;-70
2023/01/09 06:34:17;;;;;;;9.03;6.20;;;30.00;62.40;;;;;;1852630;75;21584;-73
2023/01/09 06:36:48;;;;;;;8.90;6.03;;;30.10;62.10;;;;;;1861831;75;21166;-74
2023/01/09 06:39:19;;;;;;;10.35;6.80;;;30.10;62.00;;;;;;1864118;75;21192;-74
2023/01/09 06:41:51;;;;;;;10.93;6.53;;;30.10;61.90;;;;;;1857681;76;21187;-75
2023/01/09 06:44:22;;;;;;;7.60;6.20;;;30.10;62.10;;;;;;1868368;75;21706;-73
2023/01/09 06:46:53;;;;;;;9.75;5.80;;;30.10;62.10;;;;;;1863490;76;21650;-74
2023/01/09 06:49:24;;;;;;;8.55;5.97;;;30.10;62.10;;;;;;1863863;75;21591;-74
2023/01/09 06:51:57;;;;;;;8.23;5.85;;;30.20;62.00;;;;;;1851120;75;21149;-73
2023/01/09 06:54:30;;;;;;;8.68;5.87;;;30.20;61.70;;;;;;1866738;75;21121;-74
2023/01/09 06:57:10;;;;;;;7.83;5.75;;;30.20;61.60;;;;;;1843803;76;21186;-75
2023/01/09 06:59:40;;;;;;;8.70;5.65;;;30.20;62.10;;;;;;1845485;75;21091;-71
2023/01/09 07:02:21;;;;;;;9.95;5.90;;;30.20;61.60;;;;;;1862474;75;21182;-74
2023/01/09 07:04:52;;;;;;;8.95;5.60;;;30.20;61.50;;;;;;1853093;75;21284;-74
2023/01/09 07:07:22;;;;;;;10.08;6.00;;;30.20;61.70;;;;;;1861612;75;21076;-74
2023/01/09 07:09:53;;;;;;;6.95;5.62;;;30.30;61.70;;;;;;1865648;75;21205;-74
2023/01/09 07:12:24;;;;;;;9.45;6.30;;;30.30;61.50;;;;;;1862300;75;21256;-74
2023/01/09 07:14:55;;;;;;;11.20;6.12;;;30.30;61.40;;;;;;1856268;75;21112;-74
2023/01/09 07:17:26;;;;;;;9.55;6.17;;;30.30;61.60;;;;;;1860592;75;21245;-75
2023/01/09 07:20:08;;;;;;;8.70;5.90;;;30.30;61.40;;;;;;1851838;75;21091;-74
2023/01/09 07:22:41;;;;;;;8.68;5.78;;;30.30;61.60;;;;;;1847583;75;21095;-71
2023/01/09 07:25:12;;;;;;;8.33;5.85;;;30.20;61.70;;;;;;1864879;75;22166;-73
2023/01/09 07:27:45;;;;;;;7.45;6.12;;;30.20;62.00;;;;;;1865527;75;21604;-73
2023/01/09 07:30:17;;;;;;;6.03;5.20;;;30.20;61.60;;;;;;1859531;75;21603;-72
2023/01/09 07:32:48;;;;;;;8.20;5.67;;;30.10;61.80;;;;;;1846638;76;21153;-72
2023/01/09 07:35:23;;;;;;;8.08;5.78;;;30.10;61.90;;;;;;1864217;75;21655;-71
2023/01/09 07:37:57;;;;;;;8.08;5.40;;;30.00;62.00;;;;;;1846537;76;21187;-73
2023/01/09 07:40:30;;;;;;;6.62;5.40;;;30.00;62.30;;;;;;1868487;75;21704;-72
2023/01/09 07:43:03;;;;;;;11.85;7.20;;;30.00;62.20;;;;;;1864614;75;21099;-74
2023/01/09 07:45:37;;;;;;;8.90;6.10;;;29.90;62.50;;;;;;1867143;75;21138;-73
2023/01/09 07:48:12;;;;;;;10.08;6.25;;;29.80;62.70;;;;;;1864503;76;21560;-70
2023/01/09 07:50:43;;;;;;;9.08;6.75;;;29.80;62.90;;;;;;1881920;75;21555;-72
2023/01/09 07:53:15;;;;;;;8.83;5.53;;;29.70;63.10;;;;;;1867162;75;21080;-71
2023/01/09 07:55:50;;;;;;;13.28;5.78;;;29.70;63.00;;;;;;1871508;75;21091;-73
2023/01/09 07:58:22;;;;;;;8.40;6.47;;;29.70;63.10;;;;;;1838928;77;21114;-73
2023/01/09 08:00:56;;;;;;;7.60;5.42;;;29.60;63.10;;;;;;1865889;75;21642;-73
2023/01/09 08:03:27;;;;;;;10.93;6.42;;;29.60;63.40;;;;;;1841346;76;21630;-72
2023/01/09 08:06:06;;;;;;;8.48;6.35;;;29.50;63.40;;;;;;1870957;75;21236;-75
2023/01/09 08:08:56;;;;;;;7.55;6.72;;;29.50;63.60;;;;;;1869172;75;21208;-73
2023/01/09 08:11:43;;;;;;;15.93;6.75;;;29.50;63.70;;;;;;1832193;76;21233;-73
2023/01/09 08:14:15;;;;;;;10.88;7.05;;;29.40;63.70;;;;;;1872929;75;21252;-73
2023/01/09 08:16:50;;;;;;;8.68;6.95;;;29.40;63.80;;;;;;1842693;76;21055;-70
2023/01/09 08:19:24;;;;;;;8.95;6.78;;;29.40;63.90;;;;;;1875872;75;21116;-72
2023/01/09 08:21:56;;;;;;;9.60;6.12;;;29.30;64.10;;;;;;1840481;76;21142;-72
2023/01/09 08:24:31;;;;;;;9.03;6.20;;;29.30;64.30;;;;;;1840557;76;21185;-73
2023/01/09 08:27:02;;;;;;;11.43;6.03;;;29.30;64.40;;;;;;1870827;75;21202;-71
2023/01/09 08:29:34;;;;;;;8.23;5.95;;;29.30;64.40;;;;;;1846419;76;21579;-73
2023/01/09 08:32:06;;;;;;;8.40;6.37;;;29.30;64.20;;;;;;1874633;75;21299;-72
2023/01/09 08:34:38;;;;;;;7.95;6.42;;;29.30;64.30;;;;;;1865322;76;21158;-73
2023/01/09 08:37:10;;;;;;;7.05;5.70;;;29.30;64.30;;;;;;1842582;76;21169;-72
2023/01/09 08:39:42;;;;;;;9.30;6.62;;;29.20;64.30;;;;;;1871690;76;21206;-72
2023/01/09 08:47:55;;;;;;;10.08;6.78;;;29.20;64.60;;;;;;1862530;75;21237;-72
2023/01/09 08:50:26;;;;;;;8.83;6.28;;;29.20;64.60;;;;;;1850184;76;21125;-71
2023/01/09 08:53:00;;;;;;;8.38;6.62;;;29.10;64.60;;;;;;1850697;76;21130;-71
2023/01/09 08:55:35;;;;;;;8.80;6.83;;;29.10;64.80;;;;;;1851049;76;21514;-71
2023/01/09 08:58:08;;;;;;;8.70;6.22;;;29.10;64.70;;;;;;1854811;76;21220;-71
2023/01/09 09:00:41;;;;;;;8.18;6.90;;;29.10;64.80;;;;;;1851407;76;21815;-72
2023/01/09 09:03:16;;;;;;;9.05;6.75;;;29.10;65.10;;;;;;1850862;76;21238;-69
2023/01/09 09:05:47;;;;;;;8.83;6.62;;;29.10;65.00;;;;;;1814810;77;21135;-70
2023/01/09 09:08:19;;;;;;;10.55;6.70;;;29.10;65.10;;;;;;1847084;76;21145;-70
2023/01/09 09:10:50;;;;;;;9.80;7.12;;;29.10;65.10;;;;;;1854813;76;21120;-70
2023/01/09 09:13:21;;;;;;;9.83;7.25;;;29.00;65.10;;;;;;1846168;76;21059;-70
2023/01/09 09:15:52;;;;;;;10.60;7.28;;;29.00;65.40;;;;;;1846058;76;21157;-72
2023/01/09 09:18:27;;;;;;;11.60;6.87;;;29.00;65.50;;;;;;1857566;76;21173;-71
2023/01/09 09:20:58;;;;;;;10.35;7.42;;;29.00;65.30;;;;;;1847389;76;21289;-71
2023/01/09 09:23:29;;;;;;;11.22;7.87;;;29.00;65.70;;;;;;1854606;76;21222;-71
2023/01/09 09:26:01;;;;;;;11.00;7.58;;;29.00;66.10;;;;;;1846893;76;21706;-71
2023/01/09 09:28:32;;;;;;;9.38;7.10;;;28.90;66.00;;;;;;1854992;76;21152;-68
2023/01/09 09:31:09;;;;;;;11.18;7.65;;;28.90;66.10;;;;;;1848883;76;21112;-71
2023/01/09 09:33:37;;;;;;;10.32;7.55;;;28.90;66.20;;;;;;1854215;76;21097;-70
2023/01/09 09:36:08;;;;;;;12.68;7.60;;;28.80;66.20;;;;;;1849151;76;21294;-71
2023/01/09 09:38:39;;;;;;;11.25;7.58;;;28.80;66.60;;;;;;1853931;76;21129;-70
2023/01/09 09:46:52;;;;;;;12.15;7.85;;;28.70;66.90;;;;;;1854254;76;21129;-68
2023/01/09 09:49:32;;;;;;;13.28;9.43;;;28.70;67.10;;;;;;1866088;75;21132;-69
2023/01/09 09:52:33;;;;;;;10.75;7.60;;;28.70;67.30;;;;;;1856666;75;21148;-68
2023/01/09 09:55:15;;;;;;;11.60;8.50;;;28.60;66.90;;;;;;1858093;75;21130;-71
2023/01/09 09:57:47;;;;;;;16.25;7.22;;;28.60;67.10;;;;;;1869985;75;21084;-85
2023/01/09 10:00:22;;;;;;;9.75;7.00;;;28.60;67.90;;;;;;1854362;75;21199;-86
2023/01/09 10:02:55;;;;;;;17.23;7.53;;;28.50;68.00;;;;;;1862855;75;21143;-86
2023/01/09 10:05:35;;;;;;;10.90;7.85;;;28.50;68.20;;;;;;1873249;75;21655;-86
2023/01/09 10:08:11;;;;;;;12.03;7.70;;;28.40;68.60;;;;;;1861034;76;21121;-88
2023/01/09 10:10:48;;;;;;;8.40;7.12;;;28.40;69.10;;;;;;1849325;76;21255;-88
2023/01/09 10:16:21;;;;;;;11.93;8.05;;;28.30;69.60;;;;;;1865720;75;21088;-86
2023/01/09 10:19:28;;;;;;;12.23;8.13;;;28.20;70.20;;;;;;1866098;75;21159;-88
2023/01/09 10:22:01;;;;;;;21.42;8.55;;;28.10;70.50;;;;;;1867725;75;21155;-89
2023/01/09 10:25:08;;;;;;;16.02;7.67;;;28.10;70.90;;;;;;1853316;76;21158;-86
2023/01/09 10:28:12;;;;;;;31.60;10.28;;;28.10;70.80;;;;;;1869400;76;21633;-88
2023/01/09 10:30:45;;;;;;;27.50;10.03;;;28.00;70.90;;;;;;1804486;78;21203;-88
2023/01/09 10:33:37;;;;;;;19.02;10.20;;;28.00;71.00;;;;;;1812867;78;21225;-88
2023/01/09 10:36:26;;;;;;;14.83;9.03;;;28.00;70.80;;;;;;1857929;76;21131;-89
2023/01/09 10:39:00;;;;;;;25.27;9.93;;;28.00;70.70;;;;;;1853637;77;21170;-87
2023/01/09 10:41:35;;;;;;;15.53;8.93;;;28.00;71.00;;;;;;1864632;76;21674;-89
2023/01/09 10:44:12;;;;;;;12.37;9.08;;;28.00;71.70;;;;;;1863603;76;21120;-89
2023/01/09 10:46:45;;;;;;;16.37;10.53;;;28.00;71.80;;;;;;1854233;76;21139;-87
2023/01/09 10:49:18;;;;;;;15.20;11.00;;;28.00;71.70;;;;;;1840125;77;21219;-88
2023/01/09 10:52:07;;;;;;;13.95;9.55;;;28.00;72.00;;;;;;1872616;76;21089;-89
2023/01/09 10:54:40;;;;;;;11.63;9.50;;;27.90;72.10;;;;;;1853756;76;21135;-89
2023/01/09 10:57:18;;;;;;;13.03;9.00;;;28.00;72.20;;;;;;1872466;76;21307;-87
2023/01/09 10:59:49;;;;;;;14.55;10.08;;;27.90;72.10;;;;;;1833100;78;21127;-88
2023/01/09 11:02:35;;;;;;;12.93;8.88;;;27.90;71.60;;;;;;1867258;76;21627;-88
2023/01/09 11:05:09;;;;;;;12.93;8.98;;;27.90;71.30;;;;;;1846253;76;21072;-89
2023/01/09 11:07:43;;;;;;;14.55;8.25;;;27.90;71.20;;;;;;1874611;76;21135;-87
2023/01/09 11:10:17;;;;;;;14.33;8.73;;;27.90;70.40;;;;;;1841551;76;21188;-89
2023/01/09 11:12:56;;;;;;;13.13;8.65;;;27.90;70.30;;;;;;1877379;75;21172;-88
2023/01/09 11:15:30;;;;;;;12.55;8.43;;;27.90;70.70;;;;;;1806541;79;21128;-92
2023/01/09 11:18:24;;;;;;;13.03;8.78;;;27.90;70.30;;;;;;1865374;75;21264;-88
2023/01/09 11:20:57;;;;;;;10.05;7.62;;;28.00;70.80;;;;;;1874612;76;21149;-89
2023/01/09 11:23:32;;;;;;;12.05;8.45;;;28.00;70.70;;;;;;1840183;78;21112;-89
2023/01/09 11:26:04;;;;;;;14.73;8.85;;;28.00;71.10;;;;;;1879882;75;21234;-88
2023/01/09 11:28:37;;;;;;;9.55;7.03;;;28.00;71.40;;;;;;1874980;76;21126;-89
2023/01/09 11:31:15;;;;;;;11.83;7.87;;;27.90;72.00;;;;;;1879869;75;21161;-90
2023/01/09 11:33:49;;;;;;;12.43;7.45;;;27.90;71.70;;;;;;1896264;75;21523;-88
2023/01/09 11:36:22;;;;;;;10.70;7.10;;;27.90;71.60;;;;;;1882561;76;21201;-89
2023/01/09 11:39:01;;;;;;;15.38;9.70;;;27.90;71.30;;;;;;1834170;76;21132;-89
2023/01/09 11:41:36;;;;;;;12.03;8.93;;;27.90;71.40;;;;;;1882198;75;21707;-89
2023/01/09 11:44:08;;;;;;;12.30;8.68;;;27.90;71.80;;;;;;1877998;76;21517;-88
2023/01/09 11:46:43;;;;;;;12.65;8.20;;;27.90;71.70;;;;;;1839055;76;21143;-89
2023/01/09 11:49:21;;;;;;;10.40;8.28;;;27.90;72.50;;;;;;1879497;76;21878;-88
2023/01/09 11:52:19;;;;;;;13.50;7.58;;;27.90;72.20;;;;;;1858174;77;21071;-88
2023/01/09 11:54:55;;;;;;;10.13;7.65;;;27.80;73.00;;;;;;1858106;76;21172;-88
2023/01/09 11:57:27;;;;;;;10.08;7.72;;;27.80;72.60;;;;;;1860128;76;21162;-90
2023/01/09 12:00:00;;;;;;;12.37;7.55;;;27.80;72.20;;;;;;1868912;76;21146;-88
2023/01/09 12:02:47;;;;;;;15.03;8.58;;;27.80;73.00;;;;;;1814403;79;21085;-88
2023/01/09 12:05:35;;;;;;;12.23;8.13;;;27.70;72.10;;;;;;1852873;76;21233;-89
2023/01/09 12:08:11;;;;;;;11.75;8.05;;;27.70;72.30;;;;;;1849147;77;21111;-88
2023/01/09 12:10:51;;;;;;;10.37;8.10;;;27.70;72.40;;;;;;1852132;77;21135;-87
2023/01/09 12:13:39;;;;;;;13.03;8.70;;;27.70;72.90;;;;;;1874476;75;21566;-89
2023/01/09 12:16:15;;;;;;;12.43;7.22;;;27.70;72.90;;;;;;1880557;76;21124;-87
2023/01/09 12:19:01;;;;;;;10.38;7.03;;;27.60;73.70;;;;;;1860749;76;21107;-89
2023/01/09 12:21:42;;;;;;;11.18;6.97;;;27.60;74.40;;;;;;1848922;77;21147;-89
2023/01/09 12:24:20;;;;;;;13.00;7.20;;;27.50;75.20;;;;;;1863559;75;21078;-87
2023/01/09 12:27:15;;;;;;;9.68;7.17;;;27.40;75.50;;;;;;1861863;74;21221;-89
2023/01/09 12:29:55;;;;;;;10.38;7.33;;;27.40;75.80;;;;;;1862210;77;21724;-88
2023/01/09 12:32:28;;;;;;;10.50;6.65;;;27.30;76.00;;;;;;1867139;75;21215;-90
2023/01/09 12:35:14;;;;;;;12.13;7.05;;;27.30;76.60;;;;;;1866981;75;21917;-90
2023/01/09 12:37:59;;;;;;;10.90;7.67;;;27.20;76.40;;;;;;1824079;75;21064;-80
2023/01/09 12:40:38;;;;;;;10.60;7.17;;;27.10;77.30;;;;;;1862211;75;21150;-80
2023/01/09 12:43:24;;;;;;;9.48;6.80;;;27.10;77.50;;;;;;1851820;75;21243;-80
2023/01/09 12:46:12;;;;;;;10.58;6.92;;;27.00;77.30;;;;;;1831743;75;21099;-79
2023/01/09 12:48:49;;;;;;;12.85;7.37;;;27.00;77.50;;;;;;1868086;75;21146;-77
2023/01/09 12:51:44;;;;;;;11.28;7.60;;;27.00;77.60;;;;;;1882179;74;21252;-78
2023/01/09 12:54:21;;;;;;;11.18;7.20;;;27.00;77.70;;;;;;1836480;76;21128;-77
2023/01/09 12:56:54;;;;;;;13.30;7.75;;;27.00;77.70;;;;;;1867451;75;21700;-78
2023/01/09 12:59:34;;;;;;;11.03;7.12;;;27.10;77.50;;;;;;1880095;74;21111;-77
2023/01/09 13:02:26;;;;;;;11.85;7.42;;;27.00;78.40;;;;;;1879023;76;21222;-78
2023/01/09 13:05:02;;;;;;;15.35;8.65;;;27.00;77.90;;;;;;1838417;76;21181;-78
2023/01/09 13:07:35;;;;;;;11.05;6.95;;;27.00;77.90;;;;;;1865776;75;21607;-78
2023/01/09 13:10:18;;;;;;;9.05;7.12;;;27.00;78.10;;;;;;1880353;74;21261;-79
2023/01/09 13:12:53;;;;;;;11.80;7.45;;;27.00;77.80;;;;;;1835830;78;22122;-78
2023/01/09 13:15:45;;;;;;;10.00;6.72;;;27.00;78.50;;;;;;1874854;76;21113;-77
2023/01/09 13:18:18;;;;;;;13.30;6.78;;;27.00;78.40;;;;;;1873101;75;21129;-78
2023/01/09 13:20:55;;;;;;;8.35;6.37;;;26.90;79.00;;;;;;1884854;75;21119;-78
2023/01/09 13:23:43;;;;;;;12.25;7.00;;;26.90;78.80;;;;;;1863443;75;21122;-77
2023/01/09 13:26:22;;;;;;;11.83;7.15;;;26.90;79.30;;;;;;1863045;75;21256;-77
2023/01/09 13:29:03;;;;;;;11.15;8.40;;;26.90;79.10;;;;;;1862092;75;21111;-77
2023/01/09 13:31:52;;;;;;;9.53;6.60;;;26.90;79.30;;;;;;1862100;75;21240;-77
2023/01/09 13:34:26;;;;;;;9.73;6.75;;;26.80;79.30;;;;;;1837696;76;21698;-78